createdAt,value
2023-02-03T09:16:00.129Z,100.00
2023-02-03T09:18:27.609Z,100.00
2023-02-03T09:21:07.568Z,100.00
2023-02-03T09:23:35.228Z,100.00
2023-02-03T09:26:13.016Z,100.00
2023-02-03T09:28:40.479Z,100.00
2023-02-03T09:31:17.941Z,100.00
2023-02-03T09:33:46.494Z,100.00
2023-02-03T09:36:14.495Z,100.00
2023-02-03T09:38:42.476Z,100.00
2023-02-03T09:42:10.364Z,100.00
2023-02-03T09:44:54.550Z,100.00
2023-02-03T09:47:34.164Z,100.00
2023-02-03T09:50:12.707Z,100.00
2023-02-03T09:52:44.167Z,100.00
2023-02-03T09:55:32.915Z,100.00
2023-02-03T09:58:21.238Z,100.00
2023-02-03T10:00:58.853Z,99.94
2023-02-03T10:04:27.859Z,95.50
2023-02-03T10:07:43.355Z,92.91
2023-02-03T10:10:45.673Z,92.56
2023-02-03T10:13:51.337Z,91.95
2023-02-03T10:17:06.559Z,90.19
2023-02-03T10:20:11.597Z,86.68
2023-02-03T10:22:51.021Z,84.93
2023-02-03T10:25:50.107Z,83.81
2023-02-03T10:29:32.841Z,83.53
2023-02-03T10:32:00.594Z,81.76
2023-02-03T10:34:28.023Z,80.51
2023-02-03T10:37:09.335Z,79.10
2023-02-03T10:39:51.697Z,78.21
2023-02-03T10:42:20.045Z,77.77
2023-02-03T10:44:59.637Z,77.54
2023-02-03T10:47:37.076Z,76.26
2023-02-03T10:50:31.631Z,75.95
2023-02-03T10:53:33.709Z,72.48
2023-02-03T10:56:32.273Z,72.90
2023-02-03T10:59:01.562Z,74.65
2023-02-03T11:01:44.759Z,78.37
2023-02-03T11:04:33.854Z,81.68
2023-02-03T11:07:08.228Z,82.94
2023-02-03T11:09:45.417Z,84.55
2023-02-03T11:12:21.347Z,85.58
2023-02-03T11:14:53.463Z,86.01
2023-02-03T11:17:37.155Z,88.61
2023-02-03T11:20:17.018Z,85.47
2023-02-03T11:22:45.422Z,84.81
2023-02-03T11:25:32.380Z,89.49
2023-02-03T11:28:08.003Z,86.85
2023-02-03T11:30:35.397Z,85.37
2023-02-03T11:33:03.800Z,81.26
2023-02-03T11:35:33.566Z,81.68
2023-02-03T11:38:02.451Z,82.00
2023-02-03T11:40:38.414Z,84.52
2023-02-03T11:43:18.366Z,88.12
2023-02-03T11:45:53.152Z,88.65
2023-02-03T11:48:36.157Z,88.42
2023-02-03T11:51:59.476Z,92.30
2023-02-03T11:55:04.161Z,97.00
2023-02-03T11:58:00.232Z,96.74
2023-02-03T12:01:06.569Z,96.56
2023-02-03T12:04:03.104Z,94.31
2023-02-03T12:07:10.194Z,91.19
2023-02-03T12:10:38.041Z,92.11
2023-02-03T12:13:49.425Z,92.17
2023-02-03T12:17:15.405Z,92.22
2023-02-03T12:20:21.748Z,86.12
2023-02-03T12:24:09.682Z,82.09
2023-02-03T12:27:43.254Z,81.86
2023-02-03T12:30:31.010Z,81.89
2023-02-03T12:33:35.360Z,79.51
2023-02-03T12:36:21.210Z,77.29
2023-02-03T12:39:34.430Z,76.50
2023-02-03T12:42:30.257Z,75.50
2023-02-03T12:45:24.184Z,76.72
2023-02-03T12:48:25.886Z,78.91
2023-02-03T12:51:06.321Z,79.93
2023-02-03T12:53:50.158Z,80.49
2023-02-03T12:56:31.861Z,81.66
2023-02-03T12:59:18.033Z,80.94
2023-02-03T13:02:03.509Z,82.51
2023-02-03T13:04:41.466Z,83.81
2023-02-03T13:07:41.815Z,84.41
2023-02-03T13:10:48.669Z,82.83
2023-02-03T13:13:35.267Z,80.19
2023-02-03T13:16:07.935Z,79.76
2023-02-03T13:18:42.605Z,80.55
2023-02-03T13:21:12.576Z,80.12
2023-02-03T13:23:51.525Z,80.21
2023-02-03T13:27:18.138Z,79.43
2023-02-03T13:30:43.384Z,80.34
2023-02-03T13:34:08.420Z,79.96
2023-02-03T13:37:27.293Z,83.73
2023-02-03T13:40:35.401Z,86.24
2023-02-03T13:43:13.168Z,88.09
2023-02-03T13:45:45.440Z,88.85
2023-02-03T13:48:32.064Z,89.21
2023-02-03T13:51:23.144Z,86.97
2023-02-03T13:53:58.623Z,85.70
2023-02-03T13:56:28.699Z,86.02
2023-02-03T13:59:14.166Z,84.74
2023-02-03T14:01:43.718Z,85.48
2023-02-03T14:04:34.665Z,86.00
2023-02-03T14:07:24.869Z,85.19
2023-02-03T14:10:14.150Z,87.80
2023-02-03T14:12:50.285Z,87.80
2023-02-03T14:15:26.652Z,88.76
2023-02-03T14:18:29.076Z,89.47
2023-02-03T14:21:24.839Z,89.81
2023-02-03T14:24:05.125Z,88.39
2023-02-03T14:26:46.178Z,89.32
2023-02-03T14:29:36.652Z,90.96
2023-02-03T14:32:14.591Z,89.23
2023-02-03T14:34:50.092Z,89.73
2023-02-03T14:37:32.064Z,91.84
2023-02-03T14:40:59.939Z,91.88
2023-02-03T14:44:26.865Z,92.80
2023-02-03T14:47:21.354Z,92.11
2023-02-03T14:51:23.865Z,93.08
2023-02-03T14:54:53.757Z,92.84
2023-02-03T14:57:32.695Z,93.40
2023-02-03T15:00:20.416Z,92.60
2023-02-03T15:03:12.299Z,91.47
2023-02-03T15:06:05.233Z,92.17
2023-02-03T15:08:48.548Z,93.19
2023-02-03T15:11:31.875Z,93.63
2023-02-03T15:14:26.278Z,93.39
2023-02-03T15:17:22.356Z,94.74
2023-02-03T15:19:50.712Z,94.83
2023-02-03T15:22:30.363Z,92.32
2023-02-03T15:25:10.867Z,92.29
2023-02-03T15:27:38.234Z,91.06
2023-02-03T15:30:28.791Z,89.40
2023-02-03T15:33:17.840Z,90.23
2023-02-03T15:35:49.220Z,88.88
2023-02-03T15:38:41.954Z,90.24
2023-02-03T15:41:24.219Z,89.38
2023-02-03T15:44:03.293Z,89.36
2023-02-03T15:46:45.459Z,86.99
2023-02-03T15:49:29.926Z,86.76
2023-02-03T15:52:22.178Z,86.98
2023-02-03T15:55:03.598Z,87.45
2023-02-03T15:57:34.907Z,86.79
2023-02-03T16:00:38.267Z,86.84
2023-02-03T16:03:21.525Z,88.16
2023-02-03T16:05:50.330Z,87.78
2023-02-03T16:08:52.054Z,87.91
2023-02-03T16:11:39.747Z,87.73
2023-02-03T16:14:30.923Z,87.74
2023-02-03T16:17:05.489Z,86.54
2023-02-03T16:19:38.507Z,86.95
2023-02-03T16:22:58.889Z,87.13
2023-02-03T16:25:34.513Z,87.17
2023-02-03T16:28:32.054Z,86.95
2023-02-03T16:31:39.185Z,86.70
2023-02-03T16:34:37.780Z,87.81
2023-02-03T16:37:51.290Z,88.52
2023-02-03T16:40:42.334Z,88.55
2023-02-03T16:43:34.853Z,88.27
2023-02-03T16:46:20.804Z,88.32
2023-02-03T16:49:06.683Z,86.88
2023-02-03T16:51:42.157Z,87.73
2023-02-03T16:54:17.376Z,87.75
2023-02-03T16:56:44.837Z,87.57
2023-02-03T16:59:12.451Z,87.71
2023-02-03T17:01:40.301Z,88.24
2023-02-03T17:04:08.289Z,90.21
2023-02-03T17:06:39.930Z,91.19
2023-02-03T17:09:08.375Z,91.45
2023-02-03T17:11:35.740Z,90.80
2023-02-03T17:14:03.639Z,90.81
2023-02-03T17:16:31.346Z,90.34
2023-02-03T17:18:58.816Z,90.39
2023-02-03T17:21:29.453Z,90.10
2023-02-03T17:23:59.167Z,91.12
2023-02-03T17:26:27.423Z,90.60
2023-02-03T17:28:54.754Z,91.13
2023-02-03T17:31:22.306Z,90.98
2023-02-03T17:33:53.492Z,91.42
2023-02-03T17:36:22.348Z,92.07
2023-02-03T17:55:12.049Z,88.73
2023-02-03T17:57:39.719Z,88.40
2023-02-03T18:00:09.431Z,88.95
2023-02-03T18:02:36.961Z,87.31
2023-02-03T18:05:05.262Z,87.11
2023-02-03T18:07:32.655Z,90.22
2023-02-03T18:10:00.020Z,91.46
2023-02-03T18:12:27.601Z,91.90
2023-02-03T18:14:55.412Z,92.70
2023-02-03T18:17:23.351Z,92.22
2023-02-03T18:19:55.697Z,92.56
2023-02-03T18:22:24.048Z,93.99
2023-02-03T18:24:52.212Z,95.17
2023-02-03T18:27:20.429Z,95.61
2023-02-03T18:29:48.747Z,95.64
2023-02-03T18:32:17.022Z,95.35
2023-02-03T18:34:44.466Z,95.48
2023-02-03T18:37:12.574Z,95.28
2023-02-03T18:39:39.953Z,96.03
2023-02-03T18:42:07.373Z,99.50
